Weather at St Pierre d'Oléron Airfield

Public forecast

Using degrees Celsius for public forecast. Weather courtesy of forecast.io.

Closest aviation weather report (METAR) to St Pierre d'Oléron Airfield

Report is more than 2 hours old.

Closest report is La Rochelle-Île de Ré Airport, 14.1 nm (26.2 km) NNE. Retrieved 2021/10/25 14:30 UTC (3 hours ago):

LFBH 251430Z AUTO 22008KT 190V250 CAVOK 17/14 Q1020 TEMPO BKN015TCU

Closest aviation forecast (TAF) to St Pierre d'Oléron Airfield

Closest forecast is La Rochelle-Île de Ré Airport, 14.1 nm (26.2 km) NNE. Retrieved 2021/10/25 12:48 UTC (4 hours ago):

TAF LFBH 251100Z 2512/2612 23006KT 9999 BKN020 TEMPO 2512/2518 -SHRA BKN015TCU BECMG 2600/2602 09004KT TEMPO 2602/2606 1500 MIFG PROB40 2606/2610 0400 FG VV/// PROB40 2610/2612 3000 BR BKN004